METAR Data
IDs: Format: Raw Decoded Include TAF

Data at: 1340 UTC 14 Dec 2019

PACM 141332Z AUTO 08011KT 10SM FEW003 OVC008 M04/M04 A2941 RMK AO2 CIG 006V011 FZRANO
PACM 141311Z AUTO 09012KT 10SM FEW003 BKN010 OVC075 M05/M05 A2942 RMK AO2 FZRANO
PACM 141256Z AUTO 08013KT 10SM SCT050 OVC075 M05/M05 A2941 RMK AO2 SNE20 SLP955 P0000 T10501050 FZRANO
PACM 141218Z AUTO 09010KT 9SM -SN SCT002 OVC080 M05/M05 A2942 RMK AO2 P0000 FZRANO
PACM 141156Z AUTO 09009KT 5SM -SN BR OVC002 M05/M05 A2942 RMK AO2 SNB53 SLP958 P0000 60000 T10501050 11028 21056 58001 FZRANO
PACM 141135Z AUTO 08011KT 9SM BKN002 BKN080 M06/M06 A2942 RMK AO2 FZRANO
PACM 141110Z AUTO 09011KT 10SM SCT002 OVC080 M06/M06 A2942 RMK AO2 FZRANO
PACM 141056Z AUTO 10010KT 10SM BKN002 OVC080 M05/M05 A2942 RMK AO2 SLP959 T10501050 FZRANO
PACM 141042Z AUTO 09010KT 10SM BKN002 OVC085 M05/M05 A2942 RMK AO2 FZRANO
PACM 141032Z AUTO 09011KT 10SM SCT002 OVC085 M05/M05 A2942 RMK AO2 FZRANO
PACM 141008Z AUTO 09013KT 10SM OVC002 M05/M05 A2943 RMK AO2 FZRANO
PACM 140956Z AUTO 09012KT 10SM OVC004 M05/M05 A2943 RMK AO2 SNB0857E46 SLP961 P0000 T10501050 FZRANO
PACM 140904Z AUTO 07010KT 9SM -SN OVC004 M05/M05 A2942 RMK AO2 SNB0857 CIG 001V008 P0000 FZRANO
PACM 140856Z AUTO 07012KT 10SM OVC006 M05/M05 A2942 RMK AO2 CIG 001V008 SLP959 T10501050 410281061 53006 FZRANO
PACM 140824Z AUTO 08010KT 10SM BKN006 OVC080 M03/M03 A2941 RMK AO2 CIG 004V009 FZRANO
PACM 140756Z AUTO 07011G15KT 10SM FEW006 BKN010 OVC080 M03/M03 A2941 RMK AO2 SLP956 T10331033 FZRANO
PACM 140739Z AUTO 12007KT 10SM BKN010 BKN085 OVC110 M03/M03 A2941 RMK AO2 CIG 007V011 FZRANO
PACM 140704Z AUTO 14010KT 10SM SCT007 OVC110 M03/M03 A2941 RMK AO2 FZRANO
PACM 140656Z AUTO 14011KT 10SM BKN007 OVC110 M04/M04 A2941 RMK AO2 SLP955 T10391039 FZRANO
PACM 140556Z AUTO 15013KT 10SM BKN007 OVC100 M04/M04 A2940 RMK AO2 SLP953 60000 T10441044 11039 21061 53013 FZRANO
PACM 140530Z AUTO 13009KT 10SM FEW001 BKN007 OVC100 M04/M04 A2939 RMK AO2 FZRANO
PACM 140508Z AUTO 15016KT 3SM BR FEW001 BKN020 OVC090 M04/M04 A2939 RMK AO2 FZRANO
PACM 140456Z AUTO 15016KT 4SM BR SCT020 OVC090 M04/M04 A2939 RMK AO2 UPB14E17SNB05E14 SLP948 P0000 T10441044 FZRANO
PACM 140441Z AUTO 15014KT 7SM SCT002 BKN022 OVC090 M04/M04 A2938 RMK AO2 UPB14E17SNB05E14 P0000 FZRANO
PACM 140418Z AUTO 15015KT 3SM BR BKN002 OVC120 M04/M04 A2938 RMK AO2 UPB14E17SNB05E14 P0000 FZRANO
PACM 140408Z AUTO 15015KT 1 1/2SM -SN BR BKN002 BKN120 M04/M04 A2938 RMK AO2 SNB05 P0000 FZRANO
PACM 140359Z AUTO 15015KT 2 1/2SM BR FEW002 SCT120 M04/M04 A2938 RMK AO2 VIS 1 1/2V5 FZRANO
PACM 140356Z AUTO 15016KT 5SM BR FEW120 M04/M04 A2937 RMK AO2 SLP943 T10441044 FZRANO
PACM 140342Z AUTO 15014KT 8SM SCT012 M04/M04 A2937 RMK AO2 FZRANO
PACM 140319Z AUTO 15008KT 6SM BR FEW002 BKN012 M05/M05 A2938 RMK AO2 FZRANO
PACM 140256Z AUTO 15013G18KT 9SM FEW004 SCT018 SCT095 M06/M06 A2937 RMK AO2 SLP940 60000 T10561056 50002 FZRANO
PACM 140251Z AUTO 15011G18KT 10SM FEW008 SCT019 SCT095 M06/M06 A2937 RMK AO2 FZRANO
PACM 140240Z AUTO 17010G19KT 8SM FEW008 SCT012 BKN019 M06/M06 A2936 RMK AO2 FZRANO
PACM 140209Z AUTO 00000KT 7SM OVC010 M06/M06 A2937 RMK AO2 CIG 006V014 FZRANO
PACM 140156Z AUTO 05009KT 5SM BR OVC008 M06/M06 A2937 RMK AO2 CIG 005V010 SLP942 T10561061 FZRANO
PACM 140112Z AUTO 02008KT 7SM BKN008 BKN034 OVC044 M06/M06 A2936 RMK AO2 CIG 004V009 FZRANO
PACM 140100Z AUTO 32008KT 260V170 10SM FEW004 BKN016 OVC044 M06/M07 A2936 RMK AO2 FZRANO
PACM 140056Z AUTO VRB03KT 10SM SCT014 BKN033 OVC044 M06/M07 A2936 RMK AO2 UPB19E24SNB02E19 SLP937 P0000 T10611067 FZRANO
PACM 140054Z AUTO VRB06KT 10SM SCT014 BKN033 OVC044 M06/M07 A2936 RMK AO2 UPB19E24SNB02E19 P0000 FZRANO
PACM 140038Z AUTO 17009G18KT 130V230 10SM BKN014 OVC023 M06/M07 A2936 RMK AO2 UPB19E24SNB02E19 P0000 FZRANO
PACM 140018Z AUTO 06007G15KT 010V090 8SM -SN SCT007 BKN019 OVC024 M06/M07 A2935 RMK AO2 SNB02 P0000 FZRANO
PACM 132356Z AUTO 08015G19KT 7SM BKN009 OVC021 M06/M07 A2936 RMK AO2 PK WND 17027/2300 SNE10 SLP937 P0000 60000 T10611067 11028 21061 53014 FZRANO
PACM 132344Z AUTO VRB06G16KT 9SM SCT009 OVC021 M06/M07 A2936 RMK AO2 PK WND 17027/2300 SNE10 P0000 FZRANO
PACM 132305Z AUTO 18018G27KT 160V220 9SM -SN BKN023 OVC027 M06/M07 A2933 RMK AO2 PK WND 17027/2300 P0000 FZRANO
PACM 132256Z AUTO 17017G24KT 2 1/2SM -SN BR BKN023 OVC028 M06/M07 A2933 RMK AO2 PK WND 17030/2220 SNB38 SLP929 P0000 T10611072 FZRANO
PACM 132243Z AUTO 19021G25KT 9SM -SN BKN028 OVC036 M06/M07 A2933 RMK AO2 PK WND 17030/2220 SNB38 P0000 FZRANO
PACM 132156Z AUTO 15014G22KT 10SM BKN038 M03/M07 A2932 RMK AO2 SLP924 T10331072 FZRANO
PACM 132056Z AUTO VRB06G14KT 10SM SCT044 OVC075 M03/M07 A2932 RMK AO2 SLP923 T10331067 53010 FZRANO
PACM 131956Z AUTO 00000KT 10SM OVC036 M04/M06 A2930 RMK AO2 SLP919 T10391061 FZRANO
PACM 131856Z AUTO 10005KT 10SM BKN036 OVC043 M03/M07 A2929 RMK AO2 SLP914 T10331067 FZRANO
PACM 131756Z AUTO 00000KT 10SM SCT030 OVC042 M03/M07 A2929 RMK AO2 SLP913 T10331067 11033 21061 53002 FZRANO
PACM 131556Z AUTO 20003KT 10SM OVC036 M04/M07 A2928 RMK AO2 SLP912 T10441067 FZRANO
PACM 131456Z AUTO 20009G14KT 10SM SCT038 OVC047 M04/M07 A2928 RMK AO2 SLP911 T10441067 55005 FZRANO
PACM 131356Z AUTO 33004KT 10SM CLR M06/M07 A2927 RMK AO2 SLP909 T10561072 FZRANO
PACM 131256Z AUTO 00000KT 10SM CLR M06/M07 A2928 RMK AO2 SLP912 T10611072 FZRANO
PACM 131156Z AUTO 07005KT 10SM OVC048 M06/M07 A2930 RMK AO2 SLP917 T10561067 11028 21061 53001 FZRANO
PACM 131056Z AUTO 09003KT 10SM FEW100 M06/M07 A2929 RMK AO2 SLP916 T10611067 FZRANO
PACM 130956Z AUTO 00000KT 10SM FEW050 SCT070 BKN110 M06/M07 A2929 RMK AO2 SLP914 T10561067 FZRANO
PACM 130856Z AUTO 00000KT 10SM OVC050 M06/M07 A2929 RMK AO2 SLP915 T10561067 410221061 58003 FZRANO
PACM 130756Z AUTO 08005KT 10SM OVC045 M04/M06 A2929 RMK AO2 SLP916 T10441056 FZRANO
PACM 130656Z AUTO 10003KT 10SM BKN046 OVC055 M03/M06 A2930 RMK AO2 SLP918 T10331056 FZRANO
PACM 130556Z AUTO 07009KT 10SM BKN050 OVC060 M03/M06 A2930 RMK AO2 SLP919 T10331056 11028 21061 56007 FZRANO
PACM 130456Z AUTO 08010KT 10SM FEW044 OVC090 M03/M06 A2931 RMK AO2 SLP920 T10331061 FZRANO
PACM 130356Z AUTO 07007KT 10SM CLR M06/M07 A2932 RMK AO2 SLP923 T10561067 FZRANO
PACM 130256Z AUTO 09006KT 10SM SCT044 M05/M06 A2932 RMK AO2 SLP925 T10501061 56000 FZRANO
PACM 130156Z AUTO 12004KT 10SM BKN050 BKN120 M06/M07 A2932 RMK AO2 SLP926 T10561072 FZRANO